To NAV CANADA Home Page Login to a new session Search on AWWS site Disclaimer Vers la page française équivalente Tips FAQ What's new on the site To the Forecasts and Observations / NOTAM section To "File a Flight Plan" website Publications and other links Update of the User's profile FIC Telephone Numbers My Weather Data Folder Route Weather Data Regional Weather Data Local Weather Data To the Forecasts and Observations / NOTAM section
Request Generated 10/27/2020 at 08:48:33 UTC . Weather information available at that time is displayed.


Go to a specific product

Save this request - Inactive

METAR/TAF

OTTAWA/MACDONALD-CARTIER INTL/ON    

METAR CYOW 270800Z 32013KT 15SM BKN017 OVC073 01/M01 A3024 RMK SC7AC1 SLP248=
METAR CYOW 270700Z 32010KT 15SM FEW016 OVC074 02/M00 A3023 RMK SC1AC7 SLP242=
METAR CYOW 270600Z 30006KT 15SM FEW016 OVC072 02/00 A3021 RMK SC1AC7 SLP238=

TAF CYOW 270838Z 2709/2806 32012KT P6SM SCT015 OVC070 TEMPO 2709/2711
BKN015 OVC070
FM271100 32008KT P6SM SCT015 SCT120 TEMPO 2711/2718 BKN120
FM271800 31006KT P6SM BKN100 OVC170
FM272300 VRB03KT P6SM SKC
RMK NXT FCST BY 271200Z=

OTTAWA/GATINEAU/QC    

LWIS CYND 270800Z AUTO 33007KT 01/M02 A3025=
LWIS CYND 270700Z AUTO 31006KT 270V330 02/M00 A3023=
LWIS CYND 270600Z AUTO 28003KT 01/00 A3022=

*** REMARK        : Forecast period has ended; this was the last TAF issued
*** REMARQUE : La période de prévision est échue; ceci était le dernier TAF qui a été émis
TAF AMD CYND 262239Z 2622/2701 29005KT P6SM SCT007 OVC030 TEMPO
2622/2701 BKN007 OVC030
RMK NXT FCST WILL BE ISSUED AT 271245Z=


GRAPHICAL FA CLOUDS & WEATHER FORECASTS
To the Product Selector
Graphical FA gfacn33      

GRAPHICAL FA ICING, TURBULENCE & FREEZING LEVEL FORECASTS
To the Product Selector
Graphical FA gfacn33      

Your time UTC time
Weather data provided by Environment Canada and NAV CANADA